UAE5V KJFK-OMDB
Flight info
| Callsign | UAE5V |
|---|---|
| Flight time | N/A |
| Altitude | 33000 |
| Route | DCT GREKI DCT JUDDS DCT MARTN DCT CBIRD DCT TAFFY N693A NEEKO/M085F360 NATV NETKI/N0487F370 DCT BOFUM Q37 DONAX DCT KEPAD L15 FINMA DCT CHT DCT ITVIP DCT KONAN DCT KOK UL607 FERDI DCT REMBA DCT SPI DCT ULNOK DCT VIBOM DCT NOMBO DCT RIDAR DCT RADIZ DCT NEMEK DCT ELTIB DCT GLOMY DCT PETAK/N0485F390 DCT DIMIS DCT SALUN N705 MMA P751 DASUM Y234 FYM M872 BDB Y214 RAPMA DCT KUVSO DCT KATIT DCT PEKEM M628 RIGIL G783 ELUDA/N0465F350 G783 ASPED Q308 KIPOK Q568 IMPED IMPED3C |
| Aircraft | A388/J-SADE2E3FGHIJ3J4J5M1RWXY/LB1D1 |
Departure
| Time | N/A |
|---|---|
| Airport | John F. Kennedy International Airport (KJFK) |
Arrival
| Time | 2026-04-22 14:23 |
|---|---|
| Airport | Dubai International Airport (OMDB) |
| Time | Latitude | Longitude | Altitude | Speed | Heading |
|---|---|---|---|---|---|
| 2026-04-22 13:52 | 23.87833 | 55.49254 | 38744 ft | 485 kts | 6° |
| 2026-04-22 13:52 | 23.91085 | 55.50219 | 38744 ft | 484 kts | 6° |
| 2026-04-22 13:53 | 23.97579 | 55.52225 | 38744 ft | 490 kts | 12° |
| 2026-04-22 13:53 | 24.00715 | 55.53770 | 38745 ft | 502 kts | 21° |
| 2026-04-22 13:53 | 24.03669 | 55.55879 | 38744 ft | 513 kts | 30° |
| 2026-04-22 13:54 | 24.09048 | 55.61137 | 38738 ft | 519 kts | 34° |
| 2026-04-22 13:54 | 24.14395 | 55.66430 | 38717 ft | 517 kts | 34° |
| 2026-04-22 13:55 | 24.17039 | 55.69053 | 38531 ft | 510 kts | 34° |
| 2026-04-22 13:55 | 24.19636 | 55.71634 | 38433 ft | 498 kts | 34° |
| 2026-04-22 13:55 | 24.22169 | 55.74156 | 38320 ft | 486 kts | 33° |
| 2026-04-22 13:55 | 24.24623 | 55.76598 | 38145 ft | 474 kts | 33° |
| 2026-04-22 13:56 | 24.27044 | 55.79008 | 37858 ft | 460 kts | 33° |
| 2026-04-22 13:56 | 24.29390 | 55.81342 | 37403 ft | 451 kts | 33° |
| 2026-04-22 13:56 | 24.31713 | 55.83647 | 36605 ft | 451 kts | 33° |
| 2026-04-22 13:56 | 24.34058 | 55.85966 | 35559 ft | 458 kts | 34° |
| 2026-04-22 13:57 | 24.36442 | 55.88327 | 34433 ft | 467 kts | 35° |
| 2026-04-22 13:57 | 24.38868 | 55.90735 | 33229 ft | 475 kts | 36° |
| 2026-04-22 13:57 | 24.41342 | 55.93199 | 31869 ft | 484 kts | 37° |
| 2026-04-22 13:57 | 24.43854 | 55.95704 | 30660 ft | 490 kts | 38° |
| 2026-04-22 13:58 | 24.46362 | 55.98214 | 29877 ft | 484 kts | 38° |
| 2026-04-22 13:58 | 24.48831 | 56.00688 | 29048 ft | 478 kts | 38° |
| 2026-04-22 13:58 | 24.51271 | 56.03130 | 28207 ft | 471 kts | 38° |
| 2026-04-22 13:58 | 24.53647 | 56.05507 | 27384 ft | 466 kts | 38° |
| 2026-04-22 13:59 | 24.56029 | 56.07892 | 26556 ft | 461 kts | 39° |
| 2026-04-22 13:59 | 24.58441 | 56.10164 | 25767 ft | 452 kts | 31° |
| 2026-04-22 13:59 | 24.61133 | 56.11848 | 24960 ft | 441 kts | 19° |
| 2026-04-22 13:59 | 24.64010 | 56.12872 | 24168 ft | 431 kts | 7° |
| 2026-04-22 14:00 | 24.66944 | 56.13404 | 23372 ft | 426 kts | 5° |
| 2026-04-22 14:00 | 24.69854 | 56.13929 | 22502 ft | 422 kts | 6° |
| 2026-04-22 14:00 | 24.72726 | 56.14462 | 21686 ft | 416 kts | 6° |
| 2026-04-22 14:00 | 24.75564 | 56.14995 | 20895 ft | 411 kts | 6° |
| 2026-04-22 14:01 | 24.78369 | 56.15217 | 20190 ft | 399 kts | 352° |
| 2026-04-22 14:01 | 24.81025 | 56.14713 | 19943 ft | 376 kts | 340° |
| 2026-04-22 14:01 | 24.83385 | 56.13706 | 19775 ft | 353 kts | 332° |
| 2026-04-22 14:01 | 24.85572 | 56.12617 | 19618 ft | 337 kts | 332° |
| 2026-04-22 14:02 | 24.87663 | 56.11601 | 19456 ft | 321 kts | 333° |
| 2026-04-22 14:02 | 24.89670 | 56.10625 | 19107 ft | 312 kts | 332° |
| 2026-04-22 14:02 | 24.91646 | 56.09657 | 18583 ft | 310 kts | 332° |
| 2026-04-22 14:02 | 24.93610 | 56.08689 | 18086 ft | 308 kts | 333° |
| 2026-04-22 14:03 | 24.95556 | 56.07728 | 17550 ft | 304 kts | 331° |
| 2026-04-22 14:03 | 24.97357 | 56.06549 | 16976 ft | 299 kts | 319° |
| 2026-04-22 14:03 | 24.98872 | 56.05019 | 16439 ft | 293 kts | 308° |
| 2026-04-22 14:03 | 25.00212 | 56.03330 | 15893 ft | 292 kts | 309° |
| 2026-04-22 14:04 | 25.01563 | 56.01669 | 15354 ft | 291 kts | 309° |
| 2026-04-22 14:04 | 25.02915 | 56.00025 | 14838 ft | 288 kts | 309° |
| 2026-04-22 14:04 | 25.04255 | 55.98394 | 14354 ft | 286 kts | 309° |
| 2026-04-22 14:04 | 25.05583 | 55.96772 | 13835 ft | 284 kts | 309° |
| 2026-04-22 14:05 | 25.06903 | 55.95158 | 13320 ft | 282 kts | 309° |
| 2026-04-22 14:05 | 25.08212 | 55.93553 | 12763 ft | 281 kts | 309° |
| 2026-04-22 14:05 | 25.10831 | 55.90340 | 11470 ft | 286 kts | 309° |
| 2026-04-22 14:06 | 25.12170 | 55.88693 | 10741 ft | 291 kts | 309° |
| 2026-04-22 14:06 | 25.13531 | 55.87022 | 10062 ft | 295 kts | 308° |
| 2026-04-22 14:06 | 25.14908 | 55.85331 | 9346 ft | 297 kts | 308° |
| 2026-04-22 14:06 | 25.16170 | 55.83532 | 8598 ft | 295 kts | 298° |
| 2026-04-22 14:07 | 25.17226 | 55.81589 | 7885 ft | 296 kts | 298° |
| 2026-04-22 14:07 | 25.18298 | 55.79649 | 7171 ft | 297 kts | 299° |
| 2026-04-22 14:07 | 25.19386 | 55.77706 | 6492 ft | 298 kts | 298° |
| 2026-04-22 14:07 | 25.20456 | 55.75797 | 6145 ft | 286 kts | 297° |
| 2026-04-22 14:08 | 25.21469 | 55.73987 | 6017 ft | 270 kts | 298° |
| 2026-04-22 14:08 | 25.22437 | 55.72252 | 6009 ft | 264 kts | 298° |
| 2026-04-22 14:08 | 25.23401 | 55.70518 | 6010 ft | 264 kts | 297° |
| 2026-04-22 14:08 | 25.24362 | 55.68793 | 6028 ft | 264 kts | 297° |
| 2026-04-22 14:09 | 25.25327 | 55.67063 | 6013 ft | 265 kts | 298° |
| 2026-04-22 14:09 | 25.26280 | 55.65359 | 6011 ft | 264 kts | 297° |
| 2026-04-22 14:09 | 25.27238 | 55.63641 | 6009 ft | 260 kts | 297° |
| 2026-04-22 14:09 | 25.28159 | 55.61994 | 6008 ft | 247 kts | 297° |
| 2026-04-22 14:10 | 25.29046 | 55.60391 | 6009 ft | 241 kts | 294° |
| 2026-04-22 14:10 | 25.29460 | 55.58667 | 6010 ft | 230 kts | 262° |
| 2026-04-22 14:10 | 25.28995 | 55.57034 | 6008 ft | 223 kts | 232° |
| 2026-04-22 14:10 | 25.27828 | 55.55941 | 6017 ft | 222 kts | 208° |
| 2026-04-22 14:11 | 25.26491 | 55.55105 | 6007 ft | 220 kts | 210° |
| 2026-04-22 14:11 | 25.25100 | 55.54454 | 6007 ft | 220 kts | 187° |
| 2026-04-22 14:11 | 25.23576 | 55.54702 | 6014 ft | 228 kts | 156° |
| 2026-04-22 14:11 | 25.22722 | 55.55370 | 6007 ft | 231 kts | 135° |
| 2026-04-22 14:12 | 25.21800 | 55.56838 | 6014 ft | 236 kts | 123° |
| 2026-04-22 14:12 | 25.21038 | 55.58449 | 6013 ft | 235 kts | 122° |
| 2026-04-22 14:12 | 25.20284 | 55.60041 | 5999 ft | 233 kts | 122° |
| 2026-04-22 14:12 | 25.19495 | 55.61603 | 5925 ft | 233 kts | 123° |
| 2026-04-22 14:13 | 25.18666 | 55.63157 | 5811 ft | 238 kts | 124° |
| 2026-04-22 14:13 | 25.17803 | 55.64729 | 5573 ft | 239 kts | 126° |
| 2026-04-22 14:13 | 25.16934 | 55.66290 | 5329 ft | 238 kts | 125° |
| 2026-04-22 14:13 | 25.16072 | 55.67839 | 5083 ft | 236 kts | 126° |
| 2026-04-22 14:14 | 25.15207 | 55.69385 | 4860 ft | 237 kts | 124° |
| 2026-04-22 14:14 | 25.14347 | 55.70924 | 4625 ft | 235 kts | 124° |
| 2026-04-22 14:14 | 25.13484 | 55.72468 | 4385 ft | 237 kts | 125° |
| 2026-04-22 14:14 | 25.12622 | 55.74009 | 4133 ft | 235 kts | 123° |
| 2026-04-22 14:15 | 25.11756 | 55.75549 | 3911 ft | 237 kts | 129° |
| 2026-04-22 14:15 | 25.10551 | 55.76704 | 3664 ft | 228 kts | 160° |
| 2026-04-22 14:15 | 25.09026 | 55.76960 | 3436 ft | 223 kts | 194° |
| 2026-04-22 14:15 | 25.07660 | 55.76267 | 3201 ft | 218 kts | 226° |
| 2026-04-22 14:16 | 25.06915 | 55.74874 | 3043 ft | 212 kts | 259° |
| 2026-04-22 14:16 | 25.06898 | 55.73261 | 3008 ft | 210 kts | 273° |
| 2026-04-22 14:16 | 25.06961 | 55.71641 | 3017 ft | 212 kts | 271° |
| 2026-04-22 14:16 | 25.07120 | 55.70018 | 3007 ft | 214 kts | 283° |
| 2026-04-22 14:17 | 25.07622 | 55.68508 | 3015 ft | 209 kts | 293° |
| 2026-04-22 14:17 | 25.08328 | 55.67066 | 3004 ft | 220 kts | 298° |
| 2026-04-22 14:17 | 25.09131 | 55.65608 | 3004 ft | 224 kts | 300° |
| 2026-04-22 14:17 | 25.09942 | 55.64145 | 2997 ft | 221 kts | 300° |
| 2026-04-22 14:18 | 25.10713 | 55.62756 | 2997 ft | 206 kts | 300° |
| 2026-04-22 14:18 | 25.11449 | 55.61426 | 3002 ft | 202 kts | 300° |
| 2026-04-22 14:18 | 25.12179 | 55.60109 | 3004 ft | 201 kts | 300° |
| 2026-04-22 14:18 | 25.12911 | 55.58791 | 3005 ft | 201 kts | 300° |
| 2026-04-22 14:19 | 25.13626 | 55.57497 | 2924 ft | 198 kts | 300° |
| 2026-04-22 14:19 | 25.14351 | 55.56194 | 2534 ft | 197 kts | 301° |
| 2026-04-22 14:19 | 25.15056 | 55.54917 | 2122 ft | 194 kts | 302° |
| 2026-04-22 14:19 | 25.15758 | 55.53650 | 2006 ft | 184 kts | 303° |
| 2026-04-22 14:20 | 25.16995 | 55.51413 | 1990 ft | 168 kts | 300° |
| 2026-04-22 14:20 | 25.17604 | 55.50321 | 2014 ft | 167 kts | 301° |
| 2026-04-22 14:20 | 25.18212 | 55.49221 | 1966 ft | 167 kts | 301° |
| 2026-04-22 14:21 | 25.19412 | 55.47061 | 1549 ft | 163 kts | 304° |
| 2026-04-22 14:21 | 25.19993 | 55.46004 | 1341 ft | 157 kts | 303° |
| 2026-04-22 14:22 | 25.21052 | 55.44087 | 973 ft | 138 kts | 308° |
| 2026-04-22 14:22 | 25.21551 | 55.43187 | 799 ft | 139 kts | 306° |
| 2026-04-22 14:22 | 25.22530 | 55.41409 | 460 ft | 135 kts | 307° |
| 2026-04-22 14:23 | 25.23024 | 55.40526 | 256 ft | 136 kts | 308° |
| 2026-04-22 14:23 | 25.23516 | 55.39626 | 93 ft | 136 kts | 307° |
| 2026-04-22 14:23 | 25.23988 | 55.38773 | 30 ft | 116 kts | 301° |
| 2026-04-22 14:23 | 25.24305 | 55.38200 | 32 ft | 49 kts | 301° |
| 2026-04-22 14:24 | 25.24483 | 55.37879 | 29 ft | 47 kts | 302° |
| 2026-04-22 14:24 | 25.24594 | 55.37636 | 25 ft | 28 kts | 285° |
| 2026-04-22 14:24 | 25.24613 | 55.37449 | 27 ft | 18 kts | 272° |
| 2026-04-22 14:24 | 25.24617 | 55.37326 | 27 ft | 12 kts | 275° |
| 2026-04-22 14:25 | 25.24639 | 55.37236 | 27 ft | 13 kts | 295° |
| 2026-04-22 14:25 | 25.24689 | 55.37146 | 27 ft | 15 kts | 303° |
| 2026-04-22 14:25 | 25.24742 | 55.37053 | 27 ft | 13 kts | 302° |
| 2026-04-22 14:25 | 25.24793 | 55.36962 | 27 ft | 15 kts | 302° |
| 2026-04-22 14:26 | 25.24847 | 55.36852 | 27 ft | 17 kts | 289° |
| 2026-04-22 14:26 | 25.24865 | 55.36767 | 26 ft | 12 kts | 281° |
| 2026-04-22 14:26 | 25.24892 | 55.36671 | 26 ft | 14 kts | 294° |
| 2026-04-22 14:26 | 25.24941 | 55.36579 | 26 ft | 14 kts | 302° |
| 2026-04-22 14:27 | 25.24994 | 55.36484 | 27 ft | 15 kts | 302° |
| 2026-04-22 14:27 | 25.25048 | 55.36389 | 26 ft | 15 kts | 302° |
| 2026-04-22 14:27 | 25.25102 | 55.36293 | 26 ft | 15 kts | 301° |
| 2026-04-22 14:27 | 25.25158 | 55.36192 | 27 ft | 16 kts | 302° |
| 2026-04-22 14:28 | 25.25217 | 55.36090 | 26 ft | 16 kts | 302° |
| 2026-04-22 14:28 | 25.25271 | 55.35994 | 26 ft | 12 kts | 302° |
| 2026-04-22 14:28 | 25.25314 | 55.35917 | 24 ft | 12 kts | 302° |
| 2026-04-22 14:28 | 25.25348 | 55.35856 | 26 ft | 6 kts | 302° |
| 2026-04-22 14:29 | 25.25351 | 55.35824 | 26 ft | 4 kts | 231° |
| 2026-04-22 14:29 | 25.25331 | 55.35806 | 26 ft | 5 kts | 211° |
| 2026-04-22 14:29 | 25.25284 | 55.35775 | 25 ft | 9 kts | 212° |
| 2026-04-22 14:29 | 25.25233 | 55.35740 | 30 ft | 6 kts | 211° |
| 2026-04-22 14:30 | 25.25212 | 55.35726 | 29 ft | 4 kts | 211° |
| 2026-04-22 14:30 | 25.25201 | 55.35719 | 30 ft | 1 kts | 211° |